<?xml version="1.0" encoding="UTF-8" standalone="no" ?>
<gpx xmlns="http://www.topografix.com/GPX/1/1" xmlns:xsi="http://www.w3.org/2001/XMLSchema-instance" xsi:schemaLocation="http://www.topografix.com/GPX/1/1 http://www.topografix.com/GPX/1/1/gpx.xsd" version="1.1" creator="VisuGPX - https://www.visugpx.com">
  <metadata>
    <name>Montflanquin Gravel</name>
    <desc><![CDATA[Hors asphalte gravel OK (testé avec Diverge 4, pneus 50mm)]]></desc>
  </metadata>
  <wpt lat="44.5662" lon="0.73317">
    <ele>120.6</ele>
    <name><![CDATA[David haut/bas]]></name>
  </wpt>
  <wpt lat="44.55013" lon="0.85946">
    <ele>126.4</ele>
  </wpt>
  <trk>
    <name><![CDATA[Montflanquin Gravel_18]]></name>
    <trkseg>
      <trkpt lat="44.59232" lon="0.74309">
        <ele>127</ele>
        <time>2026-08-23T09:08:49Z</time>
      </trkpt>
      <trkpt lat="44.59193" lon="0.74336">
        <ele>126</ele>
        <time>2026-08-23T09:08:57Z</time>
      </trkpt>
      <trkpt lat="44.58993" lon="0.74532">
        <ele>134.6</ele>
        <time>2026-08-23T09:10:01Z</time>
      </trkpt>
      <trkpt lat="44.58908" lon="0.74629">
        <ele>138.6</ele>
        <time>2026-08-23T09:10:33Z</time>
      </trkpt>
      <trkpt lat="44.58818" lon="0.74751">
        <ele>145</ele>
        <time>2026-08-23T09:11:13Z</time>
      </trkpt>
      <trkpt lat="44.58811" lon="0.74751">
        <ele>145.4</ele>
        <time>2026-08-23T09:11:17Z</time>
      </trkpt>
      <trkpt lat="44.58768" lon="0.74677">
        <ele>140.2</ele>
        <time>2026-08-23T09:11:33Z</time>
      </trkpt>
      <trkpt lat="44.58717" lon="0.74576">
        <ele>133.6</ele>
        <time>2026-08-23T09:11:49Z</time>
      </trkpt>
      <trkpt lat="44.58701" lon="0.74556">
        <ele>132.8</ele>
        <time>2026-08-23T09:11:53Z</time>
      </trkpt>
      <trkpt lat="44.58608" lon="0.74485">
        <ele>135.2</ele>
        <time>2026-08-23T09:12:25Z</time>
      </trkpt>
      <trkpt lat="44.58565" lon="0.74447">
        <ele>138.6</ele>
        <time>2026-08-23T09:12:41Z</time>
      </trkpt>
      <trkpt lat="44.58494" lon="0.74352">
        <ele>145.6</ele>
        <time>2026-08-23T09:13:13Z</time>
      </trkpt>
      <trkpt lat="44.5845" lon="0.74288">
        <ele>145.6</ele>
        <time>2026-08-23T09:13:29Z</time>
      </trkpt>
      <trkpt lat="44.58426" lon="0.74261">
        <ele>145.4</ele>
        <time>2026-08-23T09:13:37Z</time>
      </trkpt>
      <trkpt lat="44.58349" lon="0.74214">
        <ele>145</ele>
        <time>2026-08-23T09:14:01Z</time>
      </trkpt>
      <trkpt lat="44.58308" lon="0.74177">
        <ele>144.8</ele>
        <time>2026-08-23T09:14:17Z</time>
      </trkpt>
      <trkpt lat="44.58209" lon="0.74109">
        <ele>147.2</ele>
        <time>2026-08-23T09:14:49Z</time>
      </trkpt>
      <trkpt lat="44.58105" lon="0.74053">
        <ele>151.6</ele>
        <time>2026-08-23T09:15:21Z</time>
      </trkpt>
      <trkpt lat="44.58052" lon="0.74015">
        <ele>152.8</ele>
        <time>2026-08-23T09:15:37Z</time>
      </trkpt>
      <trkpt lat="44.57977" lon="0.73936">
        <ele>155.2</ele>
        <time>2026-08-23T09:16:01Z</time>
      </trkpt>
      <trkpt lat="44.5794" lon="0.73912">
        <ele>157.4</ele>
        <time>2026-08-23T09:16:13Z</time>
      </trkpt>
      <trkpt lat="44.57912" lon="0.73908">
        <ele>158.8</ele>
        <time>2026-08-23T09:16:21Z</time>
      </trkpt>
      <trkpt lat="44.57876" lon="0.73892">
        <ele>161.2</ele>
        <time>2026-08-23T09:16:33Z</time>
      </trkpt>
      <trkpt lat="44.5789" lon="0.73795">
        <ele>165.2</ele>
        <time>2026-08-23T09:16:57Z</time>
      </trkpt>
      <trkpt lat="44.5789" lon="0.73752">
        <ele>165.8</ele>
        <time>2026-08-23T09:17:05Z</time>
      </trkpt>
      <trkpt lat="44.57866" lon="0.73657">
        <ele>165.6</ele>
        <time>2026-08-23T09:17:21Z</time>
      </trkpt>
      <trkpt lat="44.57804" lon="0.73464">
        <ele>165.8</ele>
        <time>2026-08-23T09:17:53Z</time>
      </trkpt>
      <trkpt lat="44.57786" lon="0.73367">
        <ele>166.2</ele>
        <time>2026-08-23T09:18:09Z</time>
      </trkpt>
      <trkpt lat="44.57775" lon="0.73266">
        <ele>166.4</ele>
        <time>2026-08-23T09:18:25Z</time>
      </trkpt>
      <trkpt lat="44.57771" lon="0.73165">
        <ele>166.6</ele>
        <time>2026-08-23T09:18:41Z</time>
      </trkpt>
      <trkpt lat="44.57762" lon="0.73064">
        <ele>165.6</ele>
        <time>2026-08-23T09:18:57Z</time>
      </trkpt>
      <trkpt lat="44.57736" lon="0.72963">
        <ele>164.6</ele>
        <time>2026-08-23T09:19:13Z</time>
      </trkpt>
      <trkpt lat="44.57718" lon="0.72953">
        <ele>164.6</ele>
        <time>2026-08-23T09:19:17Z</time>
      </trkpt>
      <trkpt lat="44.57681" lon="0.72946">
        <ele>165.2</ele>
        <time>2026-08-23T09:19:25Z</time>
      </trkpt>
      <trkpt lat="44.57628" lon="0.72923">
        <ele>164.8</ele>
        <time>2026-08-23T09:19:37Z</time>
      </trkpt>
      <trkpt lat="44.576" lon="0.72919">
        <ele>163.8</ele>
        <time>2026-08-23T09:19:41Z</time>
      </trkpt>
      <trkpt lat="44.57576" lon="0.72921">
        <ele>162.8</ele>
        <time>2026-08-23T09:19:45Z</time>
      </trkpt>
      <trkpt lat="44.57526" lon="0.72939">
        <ele>159.6</ele>
        <time>2026-08-23T09:19:53Z</time>
      </trkpt>
      <trkpt lat="44.57473" lon="0.72952">
        <ele>156.6</ele>
        <time>2026-08-23T09:20:01Z</time>
      </trkpt>
      <trkpt lat="44.57422" lon="0.72948">
        <ele>155</ele>
        <time>2026-08-23T09:20:09Z</time>
      </trkpt>
      <trkpt lat="44.57398" lon="0.72939">
        <ele>154.6</ele>
        <time>2026-08-23T09:20:13Z</time>
      </trkpt>
      <trkpt lat="44.57328" lon="0.72894">
        <ele>153.4</ele>
        <time>2026-08-23T09:20:29Z</time>
      </trkpt>
      <trkpt lat="44.57276" lon="0.72856">
        <ele>152.6</ele>
        <time>2026-08-23T09:21:11Z</time>
      </trkpt>
      <trkpt lat="44.57216" lon="0.72806">
        <ele>151.4</ele>
        <time>2026-08-23T09:21:27Z</time>
      </trkpt>
      <trkpt lat="44.57181" lon="0.72759">
        <ele>150.6</ele>
        <time>2026-08-23T09:21:39Z</time>
      </trkpt>
      <trkpt lat="44.57173" lon="0.72755">
        <ele>150.4</ele>
        <time>2026-08-23T09:21:41Z</time>
      </trkpt>
    </trkseg>
  </trk>
</gpx>